createdAt,value
2019-06-26T00:08:18.265Z,27.4
2019-06-26T00:25:12.428Z,27.0
2019-06-26T00:42:06.399Z,27.0
2019-06-26T00:59:00.121Z,26.7
2019-06-26T01:15:53.560Z,26.4
2019-06-26T01:32:46.797Z,26.1
2019-06-26T01:49:39.819Z,25.8
2019-06-26T02:06:32.655Z,25.8
2019-06-26T02:23:25.121Z,25.4
2019-06-26T02:40:17.491Z,25.4
2019-06-26T02:57:09.662Z,25.1
2019-06-26T03:14:01.766Z,25.1
2019-06-26T03:30:53.547Z,24.8
2019-06-26T03:47:44.876Z,24.8
2019-06-26T04:04:36.780Z,24.8
2019-06-26T04:21:28.764Z,25.1
2019-06-26T04:38:20.814Z,25.1
2019-06-26T04:55:13.108Z,25.1
2019-06-26T05:08:42.909Z,25.8
2019-06-26T05:25:35.572Z,25.8
2019-06-26T05:42:28.412Z,26.1
2019-06-26T05:59:21.283Z,26.1
2019-06-26T06:12:51.732Z,26.7
2019-06-26T06:29:45.253Z,27.4
2019-06-26T06:46:39.766Z,27.7
2019-06-26T07:03:34.862Z,28.0
2019-06-26T07:20:30.253Z,28.3
2019-06-26T07:37:26.214Z,29.0
2019-06-26T07:54:22.513Z,29.0
2019-06-26T08:11:18.859Z,29.3
2019-06-26T08:28:15.735Z,29.6
2019-06-26T08:45:13.126Z,29.9
2019-06-26T09:02:10.539Z,29.9
2019-06-26T09:19:08.328Z,30.2
2019-06-26T09:36:07.137Z,30.2
2019-06-26T09:53:05.498Z,30.6
2019-06-26T10:10:02.029Z,30.2
2019-06-26T10:26:59.886Z,30.2
2019-06-26T10:43:57.615Z,30.2
2019-06-26T11:00:55.299Z,30.2
2019-06-26T11:17:53.025Z,30.2
2019-06-26T11:34:50.749Z,30.2
2019-06-26T11:51:48.355Z,30.2
2019-06-26T12:08:46.249Z,30.6
2019-06-26T12:25:44.485Z,30.6
2019-06-26T12:35:55.454Z,31.2
2019-06-26T12:52:53.954Z,31.2
2019-06-26T13:09:52.370Z,31.8
2019-06-26T13:26:54.324Z,31.5
2019-06-26T13:43:49.182Z,31.8
2019-06-26T13:47:12.811Z,31.2
2019-06-26T14:04:11.191Z,31.2
2019-06-26T14:21:24.609Z,31.8
2019-06-26T14:38:07.680Z,31.5
2019-06-26T14:55:05.845Z,31.2
2019-06-26T15:06:58.530Z,30.6
2019-06-26T15:23:56.574Z,30.2
2019-06-26T15:40:54.027Z,29.9
2019-06-26T15:57:51.470Z,30.2
2019-06-26T16:14:48.975Z,29.9
2019-06-26T16:31:46.367Z,30.2
2019-06-26T16:48:43.975Z,30.2
2019-06-26T17:05:41.695Z,30.2
2019-06-26T17:22:39.632Z,29.9
2019-06-26T17:39:37.574Z,30.2
2019-06-26T17:49:47.753Z,29.6
2019-06-26T17:53:21.104Z,29.0
2019-06-26T17:58:16.327Z,28.3
2019-06-26T18:05:02.161Z,27.7
2019-06-26T18:13:29.665Z,27.0
2019-06-26T18:20:14.889Z,26.4
2019-06-26T18:37:07.633Z,26.1
2019-06-26T18:54:01.125Z,25.4
2019-06-26T19:04:06.787Z,24.8
2019-06-26T19:20:57.771Z,24.2
2019-06-26T19:34:26.200Z,23.5
2019-06-26T19:47:54.008Z,22.9
2019-06-26T20:04:43.353Z,22.2
2019-06-26T20:21:32.161Z,21.6
2019-06-26T20:31:36.806Z,21.0
2019-06-26T20:48:24.585Z,20.6
2019-06-26T21:21:58.610Z,20.0
2019-06-26T21:35:23.818Z,19.4
2019-06-26T21:52:10.087Z,19.0
2019-06-26T22:02:13.480Z,18.4
2019-06-26T22:15:39.429Z,17.8
2019-06-26T22:32:22.202Z,17.4
2019-06-26T22:49:06.590Z,17.1
2019-06-26T23:05:50.992Z,17.1
2019-06-26T23:22:35.012Z,16.8
2019-06-26T23:39:19.024Z,16.8
2019-06-26T23:56:02.548Z,16.5
